Bermuda Spirit — C6XT2 — position and weather

sailwx.info

Track history (hours):
 
Tides and Currents Weather Stations Pressure Air Temp Water Temp Dewpoint Dewpoint Depression Visibility Wind Speed Wind Dir Waves Ship Positions

Bermuda Spirit

Last reported at 2016-Apr-16 02:31 UTC. Time now 2016-Aug-24 19:44 UTC.
Position N 01°13' E 103°39'.
Warning: this ship's position is months out of date.

Length 274 m; draft 8.9 m.

Type: Tanker. MMSI: 311020900.

Date/timePositionNaut miles runAvg speedWind from/ knotsBaromVisibWave heightAir tempDewpointWater temp
2016-Apr-16 02:31N 01°13' E 103°39'0 0.0
2016-Apr-16 01:19N 01°13' E 103°39'0 0.0
2016-Apr-16 00:31N 01°13' E 103°39'0 0.0
2016-Apr-15 23:07N 01°13' E 103°39'0 0.1
2016-Apr-15 22:31N 01°13' E 103°39'0 0.1
2016-Apr-15 21:25N 01°13' E 103°39'0 0.1
2016-Apr-15 20:25N 01°13' E 103°39'0 0.0
2016-Apr-15 19:31N 01°13' E 103°39'0 0.1
2016-Apr-15 18:28N 01°13' E 103°39'0 0.1
2016-Apr-15 17:25N 01°13' E 103°39'0 0.0
2016-Apr-15 16:31N 01°13' E 103°39'0 0.1
2016-Apr-15 15:31N 01°13' E 103°39'0 0.1
2016-Apr-15 14:25N 01°13' E 103°39'0 0.0
2016-Apr-15 13:28N 01°13' E 103°39'0 0.1
2016-Apr-15 12:13N 01°13' E 103°39'0 0.2
2016-Apr-15 11:31N 01°13' E 103°39'0 0.0
2016-Apr-15 10:25N 01°13' E 103°39'0 0.0
2016-Apr-15 09:28N 01°13' E 103°39'0 0.1
2016-Apr-15 08:22N 01°13' E 103°39'0 0.1
2016-Apr-15 07:31N 01°13' E 103°39'0 0.1
2016-Apr-15 06:31N 01°13' E 103°39'0 0.1
2016-Apr-15 05:19N 01°13' E 103°39'0 0.0
2016-Apr-15 04:31N 01°13' E 103°39'0 0.0
2016-Apr-15 03:25N 01°13' E 103°39'0 0.0
2016-Apr-15 02:28N 01°13' E 103°39'0 0.0
2016-Apr-15 01:28N 01°13' E 103°39'0 0.1
2016-Apr-15 00:31N 01°13' E 103°39'0 0.1
2016-Apr-14 23:16N 01°13' E 103°39'0 0.0
2016-Apr-14 22:16N 01°13' E 103°39'0 0.3
2016-Apr-14 21:31N 01°13' E 103°39'0 0.0
2016-Apr-14 20:31N 01°13' E 103°39'0 0.0
2016-Apr-14 19:31N 01°13' E 103°39'0 0.0
2016-Apr-14 18:16N 01°13' E 103°39'0 0.0
2016-Apr-14 17:13N 01°13' E 103°39'0 0.1
2016-Apr-14 16:31N 01°13' E 103°39'0 0.2
2016-Apr-14 15:31N 01°13' E 103°39'0 0.1
2016-Apr-14 14:25N 01°13' E 103°39'0 0.5
2016-Apr-14 13:33N 01°13' E 103°39'1 0.9
2016-Apr-14 12:16N 01°14' E 103°40'0 0.0
2016-Apr-14 11:31N 01°14' E 103°40'0 0.0
2016-Apr-14 10:31N 01°14' E 103°40'0 0.0
2016-Apr-14 09:31N 01°14' E 103°40'0 0.0
2016-Apr-14 08:04N 01°14' E 103°40'0 0.0
2016-Apr-14 07:22N 01°14' E 103°40'0 0.0
2016-Apr-14 05:22N 01°14' E 103°40'0 0.0
2016-Apr-14 04:25N 01°14' E 103°40'0 0.0
2016-Apr-14 02:22N 01°14' E 103°40'0 0.0
2016-Apr-14 01:31N 01°14' E 103°40'0 0.0
2016-Apr-14 00:31N 01°14' E 103°40'0 0.0
2016-Apr-13 23:28N 01°14' E 103°40'0 0.0
2016-Apr-13 22:28N 01°14' E 103°40'0 0.0
2016-Apr-13 21:28N 01°14' E 103°40'0 0.0
2016-Apr-13 20:31N 01°14' E 103°40'0 0.0
2016-Apr-13 19:28N 01°14' E 103°40'0 0.0
2016-Apr-13 18:25N 01°14' E 103°40'0 0.0
2016-Apr-13 17:28N 01°14' E 103°40'0 0.0
2016-Apr-13 16:25N 01°14' E 103°40'0 0.0
2016-Apr-13 15:25N 01°14' E 103°40'0 0.0
2016-Apr-13 14:31N 01°14' E 103°40'0 0.0
2016-Apr-13 13:31N 01°14' E 103°40'0 0.0
2016-Apr-13 12:31N 01°14' E 103°40'0 0.4
2016-Apr-13 11:33N 01°14' E 103°40'2 1.7
2016-Apr-13 10:24N 01°12' E 103°40'0 0.0
2016-Apr-13 09:07N 01°12' E 103°40'1 2.4
2016-Apr-13 08:34N 01°12' E 103°39'5 5.4
2016-Apr-13 07:33N 01°14' E 103°34'1 0.2
2016-Apr-13 04:08N 01°14' E 103°34'0 0.0
2016-Apr-13 00:11N 01°14' E 103°34'0 0.0
2016-Apr-12 21:32N 01°14' E 103°34'0 0.0
2016-Apr-12 20:23N 01°14' E 103°34'0 0.0
2016-Apr-12 19:32N 01°14' E 103°34'0 0.1
2016-Apr-12 17:29N 01°14' E 103°34'0 0.1
2016-Apr-12 16:32N 01°14' E 103°34'0 0.1
2016-Apr-12 15:20N 01°14' E 103°34'0 0.0
2016-Apr-12 13:29N 01°14' E 103°34'0 0.1
2016-Apr-12 12:29N 01°14' E 103°34'0 0.0
2016-Apr-12 04:32N 01°14' E 103°34'0 0.1
2016-Apr-12 00:20N 01°14' E 103°34'0 0.1
2016-Apr-11 21:29N 01°14' E 103°34'0 0.0
2016-Apr-11 20:20N 01°14' E 103°34'0 0.0
2016-Apr-11 18:08N 01°14' E 103°34'0 0.1
2016-Apr-11 14:14N 01°14' E 103°34'0 0.0
2016-Apr-11 03:26N 01°14' E 103°34'0 0.1
2016-Apr-10 23:14N 01°14' E 103°34'0 0.0
2016-Apr-10 19:11N 01°14' E 103°34'0 0.1
2016-Apr-10 16:11N 01°14' E 103°34'0 0.1
2016-Apr-10 15:14N 01°14' E 103°34'0 0.0
2016-Apr-10 13:26N 01°14' E 103°34'0 0.0
2016-Apr-10 11:32N 01°14' E 103°34'0 0.0
2016-Apr-10 09:32N 01°14' E 103°34'0 0.2
2016-Apr-10 08:17N 01°14' E 103°34'0 0.1
2016-Apr-10 07:29N 01°14' E 103°34'0 0.1
2016-Apr-10 04:32N 01°14' E 103°34'0 0.2
2016-Apr-10 03:32N 01°14' E 103°34'1 1.3
2016-Apr-10 02:33N 01°13' E 103°33'5 4.7
2016-Apr-10 01:33N 01°10' E 103°29'50 8.3
2016-Apr-09 19:31N 01°38' E 102°48'9 9.6
2016-Apr-09 18:33N 01°42' E 102°39'10 9.7
2016-Apr-09 17:33N 01°46' E 102°30'1010.3
2016-Apr-09 16:33N 01°50' E 102°21'1110.3
2016-Apr-09 15:31N 01°55' E 102°11'  
Track history (hours):
 
Tides and Currents Weather Stations Pressure Air Temp Water Temp Dewpoint Dewpoint Depression Visibility Wind Speed Wind Dir Waves Ship Positions

Bermuda Spirit

Last reported at 2016-Apr-16 02:31 UTC. Time now 2016-Aug-24 19:44 UTC.
Position N 01°13' E 103°39'.
Warning: this ship's position is months out of date.

Length 274 m; draft 8.9 m.

Type: Tanker. MMSI: 311020900.

Date/timePositionNaut miles runAvg speedWind from/ knotsBaromVisibWave heightAir tempDewpointWater temp
2016-Apr-16 02:31N 01°13' E 103°39'0 0.0
2016-Apr-16 01:19N 01°13' E 103°39'0 0.0
2016-Apr-16 00:31N 01°13' E 103°39'0 0.0
2016-Apr-15 23:07N 01°13' E 103°39'0 0.1
2016-Apr-15 22:31N 01°13' E 103°39'0 0.1
2016-Apr-15 21:25N 01°13' E 103°39'0 0.1
2016-Apr-15 20:25N 01°13' E 103°39'0 0.0
2016-Apr-15 19:31N 01°13' E 103°39'0 0.1
2016-Apr-15 18:28N 01°13' E 103°39'0 0.1
2016-Apr-15 17:25N 01°13' E 103°39'0 0.0
2016-Apr-15 16:31N 01°13' E 103°39'0 0.1
2016-Apr-15 15:31N 01°13' E 103°39'0 0.1
2016-Apr-15 14:25N 01°13' E 103°39'0 0.0
2016-Apr-15 13:28N 01°13' E 103°39'0 0.1
2016-Apr-15 12:13N 01°13' E 103°39'0 0.2
2016-Apr-15 11:31N 01°13' E 103°39'0 0.0
2016-Apr-15 10:25N 01°13' E 103°39'0 0.0
2016-Apr-15 09:28N 01°13' E 103°39'0 0.1
2016-Apr-15 08:22N 01°13' E 103°39'0 0.1
2016-Apr-15 07:31N 01°13' E 103°39'0 0.1
2016-Apr-15 06:31N 01°13' E 103°39'0 0.1
2016-Apr-15 05:19N 01°13' E 103°39'0 0.0
2016-Apr-15 04:31N 01°13' E 103°39'0 0.0
2016-Apr-15 03:25N 01°13' E 103°39'0 0.0
2016-Apr-15 02:28N 01°13' E 103°39'0 0.0
2016-Apr-15 01:28N 01°13' E 103°39'0 0.1
2016-Apr-15 00:31N 01°13' E 103°39'0 0.1
2016-Apr-14 23:16N 01°13' E 103°39'0 0.0
2016-Apr-14 22:16N 01°13' E 103°39'0 0.3
2016-Apr-14 21:31N 01°13' E 103°39'0 0.0
2016-Apr-14 20:31N 01°13' E 103°39'0 0.0
2016-Apr-14 19:31N 01°13' E 103°39'0 0.0
2016-Apr-14 18:16N 01°13' E 103°39'0 0.0
2016-Apr-14 17:13N 01°13' E 103°39'0 0.1
2016-Apr-14 16:31N 01°13' E 103°39'0 0.2
2016-Apr-14 15:31N 01°13' E 103°39'0 0.1
2016-Apr-14 14:25N 01°13' E 103°39'0 0.5
2016-Apr-14 13:33N 01°13' E 103°39'1 0.9
2016-Apr-14 12:16N 01°14' E 103°40'0 0.0
2016-Apr-14 11:31N 01°14' E 103°40'0 0.0
2016-Apr-14 10:31N 01°14' E 103°40'0 0.0
2016-Apr-14 09:31N 01°14' E 103°40'0 0.0
2016-Apr-14 08:04N 01°14' E 103°40'0 0.0
2016-Apr-14 07:22N 01°14' E 103°40'0 0.0
2016-Apr-14 05:22N 01°14' E 103°40'0 0.0
2016-Apr-14 04:25N 01°14' E 103°40'0 0.0
2016-Apr-14 02:22N 01°14' E 103°40'0 0.0
2016-Apr-14 01:31N 01°14' E 103°40'0 0.0
2016-Apr-14 00:31N 01°14' E 103°40'0 0.0
2016-Apr-13 23:28N 01°14' E 103°40'0 0.0
2016-Apr-13 22:28N 01°14' E 103°40'0 0.0
2016-Apr-13 21:28N 01°14' E 103°40'0 0.0
2016-Apr-13 20:31N 01°14' E 103°40'0 0.0
2016-Apr-13 19:28N 01°14' E 103°40'0 0.0
2016-Apr-13 18:25N 01°14' E 103°40'0 0.0
2016-Apr-13 17:28N 01°14' E 103°40'0 0.0
2016-Apr-13 16:25N 01°14' E 103°40'0 0.0
2016-Apr-13 15:25N 01°14' E 103°40'0 0.0
2016-Apr-13 14:31N 01°14' E 103°40'0 0.0
2016-Apr-13 13:31N 01°14' E 103°40'0 0.0
2016-Apr-13 12:31N 01°14' E 103°40'0 0.4
2016-Apr-13 11:33N 01°14' E 103°40'2 1.7
2016-Apr-13 10:24N 01°12' E 103°40'0 0.0
2016-Apr-13 09:07N 01°12' E 103°40'1 2.4
2016-Apr-13 08:34N 01°12' E 103°39'5 5.4
2016-Apr-13 07:33N 01°14' E 103°34'1 0.2
2016-Apr-13 04:08N 01°14' E 103°34'0 0.0
2016-Apr-13 00:11N 01°14' E 103°34'0 0.0
2016-Apr-12 21:32N 01°14' E 103°34'0 0.0
2016-Apr-12 20:23N 01°14' E 103°34'0 0.0
2016-Apr-12 19:32N 01°14' E 103°34'0 0.1
2016-Apr-12 17:29N 01°14' E 103°34'0 0.1
2016-Apr-12 16:32N 01°14' E 103°34'0 0.1
2016-Apr-12 15:20N 01°14' E 103°34'0 0.0
2016-Apr-12 13:29N 01°14' E 103°34'0 0.1
2016-Apr-12 12:29N 01°14' E 103°34'0 0.0
2016-Apr-12 04:32N 01°14' E 103°34'0 0.1
2016-Apr-12 00:20N 01°14' E 103°34'0 0.1
2016-Apr-11 21:29N 01°14' E 103°34'0 0.0
2016-Apr-11 20:20N 01°14' E 103°34'0 0.0
2016-Apr-11 18:08N 01°14' E 103°34'0 0.1
2016-Apr-11 14:14N 01°14' E 103°34'0 0.0
2016-Apr-11 03:26N 01°14' E 103°34'0 0.1
2016-Apr-10 23:14N 01°14' E 103°34'0 0.0
2016-Apr-10 19:11N 01°14' E 103°34'0 0.1
2016-Apr-10 16:11N 01°14' E 103°34'0 0.1
2016-Apr-10 15:14N 01°14' E 103°34'0 0.0
2016-Apr-10 13:26N 01°14' E 103°34'0 0.0
2016-Apr-10 11:32N 01°14' E 103°34'0 0.0
2016-Apr-10 09:32N 01°14' E 103°34'0 0.2
2016-Apr-10 08:17N 01°14' E 103°34'0 0.1
2016-Apr-10 07:29N 01°14' E 103°34'0 0.1
2016-Apr-10 04:32N 01°14' E 103°34'0 0.2
2016-Apr-10 03:32N 01°14' E 103°34'1 1.3
2016-Apr-10 02:33N 01°13' E 103°33'5 4.7
2016-Apr-10 01:33N 01°10' E 103°29'50 8.3
2016-Apr-09 19:31N 01°38' E 102°48'9 9.6
2016-Apr-09 18:33N 01°42' E 102°39'10 9.7
2016-Apr-09 17:33N 01°46' E 102°30'1010.3
2016-Apr-09 16:33N 01°50' E 102°21'1110.3
2016-Apr-09 15:31N 01°55' E 102°11'  

Dump ship's entire track history